Time;durP1;ratioP1;P1;durP2;ratioP2;P2;SDS_P1;SDS_P2;PMS_P1;PMS_P2;Temp;Humidity;BMP_temperature;BMP_pressure;BME280_temperature;BME280_humidity;BME280_pressure;Samples;Min_cycle;Max_cycle;Signal;HPM_P1;HPM_P2
2021/08/31 00:02:12;;;;;;;10.73;6.50;;;;;;;;;;143743;578;46010;-55
2021/08/31 00:04:39;;;;;;;11.10;6.43;;;;;;;;;;143744;580;46016;-55
2021/08/31 00:07:06;;;;;;;10.73;6.72;;;;;;;;;;143744;599;46023;-55
2021/08/31 00:09:33;;;;;;;9.95;5.72;;;;;;;;;;143742;615;46020;-56
2021/08/31 00:12:00;;;;;;;7.82;6.12;;;;;;;;;;143740;597;47010;-55
2021/08/31 00:14:27;;;;;;;10.00;5.93;;;;;;;;;;143739;628;46019;-55
2021/08/31 00:16:55;;;;;;;9.27;6.85;;;;;;;;;;143744;619;46022;-56
2021/08/31 00:19:21;;;;;;;9.73;5.70;;;;;;;;;;143742;623;46020;-55
2021/08/31 00:21:48;;;;;;;9.13;5.40;;;;;;;;;;143743;608;46011;-55
2021/08/31 00:24:15;;;;;;;11.15;6.37;;;;;;;;;;143744;708;46025;-55
2021/08/31 00:26:42;;;;;;;10.88;6.40;;;;;;;;;;143742;568;46013;-55
2021/08/31 00:29:09;;;;;;;9.75;5.70;;;;;;;;;;143743;564;46019;-55
2021/08/31 00:31:36;;;;;;;8.27;6.05;;;;;;;;;;143742;596;46022;-55
2021/08/31 00:34:03;;;;;;;10.70;5.95;;;;;;;;;;143743;563;46016;-55
2021/08/31 00:36:30;;;;;;;7.28;5.60;;;;;;;;;;143744;569;46022;-55
2021/08/31 00:38:57;;;;;;;9.68;6.35;;;;;;;;;;143737;623;46018;-55
2021/08/31 00:41:27;;;;;;;7.65;6.12;;;;;;;;;;143742;576;46010;-55
2021/08/31 00:43:54;;;;;;;12.25;6.18;;;;;;;;;;143744;569;46016;-55
2021/08/31 00:46:22;;;;;;;9.13;5.90;;;;;;;;;;143743;774;46022;-55
2021/08/31 00:48:53;;;;;;;10.18;6.57;;;;;;;;;;143742;569;46010;-56
2021/08/31 00:51:21;;;;;;;12.27;6.28;;;;;;;;;;143739;585;47010;-56
2021/08/31 00:53:49;;;;;;;9.57;6.35;;;;;;;;;;143743;661;46016;-55
2021/08/31 00:56:16;;;;;;;9.45;6.50;;;;;;;;;;143743;619;46022;-55
2021/08/31 00:58:44;;;;;;;11.95;6.37;;;;;;;;;;143740;664;46020;-55
2021/08/31 01:01:11;;;;;;;7.30;5.30;;;;;;;;;;143741;566;46010;-55
2021/08/31 01:03:40;;;;;;;10.88;6.70;;;;;;;;;;143738;620;46010;-55
2021/08/31 01:06:07;;;;;;;8.77;6.20;;;;;;;;;;143744;571;46022;-55
2021/08/31 01:08:34;;;;;;;11.05;6.70;;;;;;;;;;143742;614;46021;-55
2021/08/31 01:11:02;;;;;;;9.30;5.62;;;;;;;;;;143742;627;46010;-55
2021/08/31 01:13:32;;;;;;;8.82;5.60;;;;;;;;;;143741;597;46019;-56
2021/08/31 01:15:59;;;;;;;8.43;6.35;;;;;;;;;;143743;622;46012;-55
2021/08/31 01:18:27;;;;;;;9.38;5.90;;;;;;;;;;143744;595;46018;-56
2021/08/31 01:20:56;;;;;;;11.85;6.15;;;;;;;;;;143741;865;47010;-55
2021/08/31 01:23:25;;;;;;;10.40;6.60;;;;;;;;;;143741;624;46018;-55
2021/08/31 01:25:55;;;;;;;11.70;7.07;;;;;;;;;;143743;583;46012;-55
2021/08/31 01:28:31;;;;;;;11.52;6.68;;;;;;;;;;143737;582;46019;-55
2021/08/31 01:31:02;;;;;;;10.65;6.70;;;;;;;;;;143741;616;46023;-55
2021/08/31 01:33:31;;;;;;;9.88;6.30;;;;;;;;;;143743;594;46016;-56
2021/08/31 01:36:20;;;;;;;13.55;6.53;;;;;;;;;;143743;622;46012;-56
2021/08/31 01:38:48;;;;;;;8.80;5.85;;;;;;;;;;143744;566;46018;-55
2021/08/31 01:41:15;;;;;;;10.18;6.18;;;;;;;;;;143740;564;46919;-55
2021/08/31 01:43:43;;;;;;;9.40;6.50;;;;;;;;;;143744;576;46011;-56
2021/08/31 01:46:10;;;;;;;11.30;6.15;;;;;;;;;;143743;589;46012;-56
2021/08/31 01:48:37;;;;;;;10.35;6.15;;;;;;;;;;143743;649;46018;-55
2021/08/31 01:51:08;;;;;;;8.82;5.65;;;;;;;;;;143741;573;46022;-56
2021/08/31 01:53:36;;;;;;;9.95;6.25;;;;;;;;;;143734;617;46018;-55
2021/08/31 01:56:03;;;;;;;7.53;5.07;;;;;;;;;;143742;593;46012;-55
2021/08/31 01:58:31;;;;;;;8.70;5.55;;;;;;;;;;143742;577;46019;-55
2021/08/31 02:00:58;;;;;;;9.23;5.62;;;;;;;;;;143739;621;46022;-55
2021/08/31 02:03:26;;;;;;;9.35;6.05;;;;;;;;;;143741;657;46016;-55
2021/08/31 02:05:52;;;;;;;9.63;5.57;;;;;;;;;;143742;659;46012;-55
2021/08/31 02:08:19;;;;;;;14.95;6.28;;;;;;;;;;143742;607;46018;-55
2021/08/31 02:10:46;;;;;;;16.48;5.97;;;;;;;;;;143741;616;46010;-55
2021/08/31 02:13:14;;;;;;;11.73;6.05;;;;;;;;;;143742;570;46016;-55
2021/08/31 02:15:41;;;;;;;32.17;10.27;;;;;;;;;;143741;606;46012;-55
2021/08/31 02:18:08;;;;;;;22.30;9.93;;;;;;;;;;143734;617;47020;-55
2021/08/31 02:20:35;;;;;;;20.45;9.35;;;;;;;;;;143740;634;46022;-55
2021/08/31 02:23:03;;;;;;;14.85;6.97;;;;;;;;;;143739;623;46016;-56
2021/08/31 02:25:30;;;;;;;16.00;8.15;;;;;;;;;;143743;683;46012;-55
2021/08/31 02:27:57;;;;;;;23.17;11.98;;;;;;;;;;143741;667;46019;-55
2021/08/31 02:30:24;;;;;;;21.75;10.45;;;;;;;;;;143739;596;46023;-55
2021/08/31 02:32:52;;;;;;;23.48;11.90;;;;;;;;;;143739;594;46016;-55
2021/08/31 02:35:19;;;;;;;19.35;9.90;;;;;;;;;;143744;585;46012;-55
2021/08/31 02:37:46;;;;;;;24.20;10.52;;;;;;;;;;143741;623;46018;-55
2021/08/31 02:40:13;;;;;;;19.25;11.00;;;;;;;;;;143739;576;46022;-55
2021/08/31 02:42:40;;;;;;;21.83;10.75;;;;;;;;;;143735;626;46017;-55
2021/08/31 02:45:08;;;;;;;20.05;10.95;;;;;;;;;;143742;577;46010;-55
2021/08/31 02:47:35;;;;;;;22.37;10.52;;;;;;;;;;143741;593;46020;-55
2021/08/31 02:50:03;;;;;;;24.48;11.45;;;;;;;;;;143738;570;47011;-55
2021/08/31 02:52:30;;;;;;;24.52;11.00;;;;;;;;;;143740;740;46016;-55
2021/08/31 02:54:57;;;;;;;16.08;8.85;;;;;;;;;;143742;678;46010;-55
2021/08/31 02:57:24;;;;;;;17.75;9.30;;;;;;;;;;143741;581;47019;-55
2021/08/31 02:59:51;;;;;;;18.23;9.70;;;;;;;;;;143741;601;46010;-54
2021/08/31 03:02:18;;;;;;;28.17;10.20;;;;;;;;;;143743;569;46010;-55
2021/08/31 03:04:46;;;;;;;19.98;9.23;;;;;;;;;;143742;676;46010;-56
2021/08/31 03:07:15;;;;;;;13.57;8.07;;;;;;;;;;143735;595;46021;-55
2021/08/31 03:09:42;;;;;;;13.73;7.75;;;;;;;;;;143740;599;46022;-55
2021/08/31 03:12:10;;;;;;;14.95;8.68;;;;;;;;;;143739;773;46019;-55
2021/08/31 03:14:38;;;;;;;12.57;7.90;;;;;;;;;;143740;669;46023;-55
2021/08/31 03:17:06;;;;;;;15.73;8.38;;;;;;;;;;143742;689;46018;-55
2021/08/31 03:19:33;;;;;;;15.55;8.32;;;;;;;;;;143739;760;46011;-55
2021/08/31 03:22:02;;;;;;;12.40;8.15;;;;;;;;;;143740;631;46018;-55
2021/08/31 03:24:29;;;;;;;16.87;8.32;;;;;;;;;;143742;624;46022;-56
2021/08/31 03:26:56;;;;;;;16.77;8.48;;;;;;;;;;143743;581;46019;-55
2021/08/31 03:29:23;;;;;;;19.23;9.05;;;;;;;;;;143740;564;46023;-55
2021/08/31 03:31:50;;;;;;;19.17;8.85;;;;;;;;;;143734;599;46016;-55
2021/08/31 03:34:17;;;;;;;16.60;7.72;;;;;;;;;;143741;622;46013;-54
2021/08/31 03:36:45;;;;;;;16.48;8.65;;;;;;;;;;143742;589;46018;-55
2021/08/31 03:39:12;;;;;;;16.10;8.23;;;;;;;;;;143740;595;46918;-55
2021/08/31 03:41:39;;;;;;;18.62;8.18;;;;;;;;;;143741;617;46017;-55
2021/08/31 03:44:06;;;;;;;14.93;8.30;;;;;;;;;;143742;692;46012;-55
2021/08/31 03:46:33;;;;;;;19.83;9.10;;;;;;;;;;143741;603;46020;-54
2021/08/31 03:49:01;;;;;;;37.47;22.50;;;;;;;;;;143740;607;46022;-55
2021/08/31 03:51:28;;;;;;;33.97;23.02;;;;;;;;;;143739;565;46016;-55
2021/08/31 03:53:55;;;;;;;17.48;11.60;;;;;;;;;;143742;602;46022;-55
2021/08/31 03:56:22;;;;;;;21.73;12.63;;;;;;;;;;143734;632;46020;-55
2021/08/31 03:58:49;;;;;;;25.27;10.90;;;;;;;;;;143740;585;46010;-55
2021/08/31 04:01:16;;;;;;;17.77;9.77;;;;;;;;;;143740;730;46016;-55
2021/08/31 04:03:43;;;;;;;18.30;10.70;;;;;;;;;;143742;564;46012;-54
2021/08/31 04:06:10;;;;;;;21.95;10.80;;;;;;;;;;143739;619;46021;-55
2021/08/31 04:08:37;;;;;;;20.65;10.65;;;;;;;;;;143739;649;46010;-55
2021/08/31 04:11:04;;;;;;;18.48;10.25;;;;;;;;;;143738;564;46018;-55
2021/08/31 04:13:31;;;;;;;18.25;11.00;;;;;;;;;;143741;576;46023;-55
2021/08/31 04:15:58;;;;;;;26.92;12.50;;;;;;;;;;143741;576;46020;-55
2021/08/31 04:18:25;;;;;;;21.42;10.55;;;;;;;;;;143738;729;46011;-55
2021/08/31 04:20:52;;;;;;;23.77;12.10;;;;;;;;;;143733;628;46018;-55
2021/08/31 04:23:19;;;;;;;19.15;12.63;;;;;;;;;;143742;713;46022;-56
2021/08/31 04:25:46;;;;;;;27.42;15.85;;;;;;;;;;143742;587;46020;-55
2021/08/31 04:28:13;;;;;;;26.55;16.00;;;;;;;;;;143739;608;46023;-55
2021/08/31 04:30:40;;;;;;;29.80;14.80;;;;;;;;;;143739;569;46016;-56
2021/08/31 04:33:07;;;;;;;25.23;12.45;;;;;;;;;;143739;576;46022;-55
2021/08/31 04:35:34;;;;;;;19.33;10.98;;;;;;;;;;143740;771;46021;-55
2021/08/31 04:38:01;;;;;;;22.20;10.93;;;;;;;;;;143740;722;46010;-54
2021/08/31 04:40:28;;;;;;;20.85;14.43;;;;;;;;;;143739;569;46018;-55
2021/08/31 04:42:55;;;;;;;25.15;11.85;;;;;;;;;;143740;587;46012;-55
2021/08/31 04:45:21;;;;;;;21.17;10.70;;;;;;;;;;143733;575;46020;-54
2021/08/31 04:47:48;;;;;;;19.58;11.27;;;;;;;;;;143738;630;47010;-55
2021/08/31 04:50:15;;;;;;;22.37;11.30;;;;;;;;;;143738;603;46019;-55
2021/08/31 04:52:42;;;;;;;24.23;10.25;;;;;;;;;;143741;574;46012;-55
2021/08/31 04:55:11;;;;;;;21.15;10.23;;;;;;;;;;143739;719;46020;-55
2021/08/31 04:57:37;;;;;;;23.17;9.95;;;;;;;;;;143738;629;46023;-55
2021/08/31 05:00:06;;;;;;;23.52;11.18;;;;;;;;;;143742;583;46010;-55
2021/08/31 05:02:35;;;;;;;23.95;15.70;;;;;;;;;;143743;564;46012;-54
2021/08/31 05:05:02;;;;;;;22.10;12.90;;;;;;;;;;143742;624;46020;-55
2021/08/31 05:07:29;;;;;;;36.17;21.83;;;;;;;;;;143734;583;46917;-55
2021/08/31 05:09:56;;;;;;;21.17;14.27;;;;;;;;;;143734;746;46016;-54
2021/08/31 05:12:23;;;;;;;28.95;13.02;;;;;;;;;;143737;587;46022;-55
2021/08/31 05:14:50;;;;;;;29.10;11.23;;;;;;;;;;143740;564;46020;-54
2021/08/31 05:17:17;;;;;;;21.27;10.32;;;;;;;;;;143738;592;46890;-54
2021/08/31 05:19:44;;;;;;;27.27;11.68;;;;;;;;;;143741;569;46016;-55
2021/08/31 05:22:11;;;;;;;21.80;11.98;;;;;;;;;;143739;589;46012;-54
2021/08/31 05:24:38;;;;;;;25.52;12.88;;;;;;;;;;143741;588;46020;-54
2021/08/31 05:27:06;;;;;;;24.73;12.10;;;;;;;;;;143738;567;46023;-54
2021/08/31 05:29:33;;;;;;;24.37;12.00;;;;;;;;;;143741;580;46016;-55
2021/08/31 05:32:00;;;;;;;22.15;10.30;;;;;;;;;;143741;586;46017;-55
2021/08/31 05:34:27;;;;;;;26.25;9.68;;;;;;;;;;143735;578;46020;-55
2021/08/31 05:36:53;;;;;;;23.20;9.88;;;;;;;;;;143739;583;46022;-56
2021/08/31 05:39:20;;;;;;;22.98;10.02;;;;;;;;;;143742;569;46010;-55
2021/08/31 05:41:47;;;;;;;21.45;9.25;;;;;;;;;;143740;705;46012;-55
2021/08/31 05:44:14;;;;;;;24.95;9.00;;;;;;;;;;143742;625;46018;-55
2021/08/31 05:46:41;;;;;;;28.12;10.93;;;;;;;;;;143738;570;46022;-54
2021/08/31 05:49:08;;;;;;;19.33;10.35;;;;;;;;;;143741;593;46007;-54
2021/08/31 05:51:35;;;;;;;24.08;10.10;;;;;;;;;;143743;567;46022;-55
2021/08/31 05:54:03;;;;;;;24.08;9.50;;;;;;;;;;143738;642;47020;-54
2021/08/31 05:56:29;;;;;;;21.77;10.93;;;;;;;;;;143740;645;46022;-54
2021/08/31 05:58:56;;;;;;;24.25;9.20;;;;;;;;;;143736;612;46016;-53
2021/08/31 06:01:23;;;;;;;19.37;8.85;;;;;;;;;;143743;571;46012;-54
2021/08/31 06:03:51;;;;;;;21.08;8.45;;;;;;;;;;143743;634;46019;-54
2021/08/31 06:06:18;;;;;;;17.12;7.72;;;;;;;;;;143741;592;46010;-54
2021/08/31 06:08:45;;;;;;;15.55;8.35;;;;;;;;;;143740;575;46018;-54
2021/08/31 06:11:16;;;;;;;15.82;8.00;;;;;;;;;;143741;583;46013;-54
2021/08/31 06:13:43;;;;;;;17.52;10.50;;;;;;;;;;143740;603;46021;-54
2021/08/31 06:16:09;;;;;;;19.83;9.23;;;;;;;;;;143740;569;46010;-55
2021/08/31 06:18:36;;;;;;;20.73;10.77;;;;;;;;;;143743;583;46010;-55
2021/08/31 06:21:03;;;;;;;13.85;6.82;;;;;;;;;;143741;604;46023;-54
2021/08/31 06:23:30;;;;;;;10.93;6.30;;;;;;;;;;143731;578;47020;-55
2021/08/31 06:25:57;;;;;;;10.68;5.87;;;;;;;;;;143738;615;46022;-55
2021/08/31 06:28:25;;;;;;;12.65;6.25;;;;;;;;;;143741;592;46016;-54
2021/08/31 06:30:52;;;;;;;12.45;6.18;;;;;;;;;;143741;566;46022;-54
2021/08/31 06:33:19;;;;;;;12.55;6.15;;;;;;;;;;143740;595;46020;-55
2021/08/31 06:35:46;;;;;;;12.02;7.70;;;;;;;;;;143741;600;46023;-55
2021/08/31 06:38:13;;;;;;;10.40;5.90;;;;;;;;;;143742;591;46016;-54
2021/08/31 06:40:40;;;;;;;11.80;5.07;;;;;;;;;;143742;570;46022;-54
2021/08/31 06:43:07;;;;;;;11.00;6.90;;;;;;;;;;143739;569;46021;-53
2021/08/31 06:45:34;;;;;;;10.80;6.10;;;;;;;;;;143737;619;47010;-53
2021/08/31 06:48:01;;;;;;;13.60;7.97;;;;;;;;;;143736;610;46018;-53
2021/08/31 06:50:29;;;;;;;10.60;7.70;;;;;;;;;;143742;634;46023;-54
2021/08/31 06:52:55;;;;;;;8.98;5.15;;;;;;;;;;143743;618;46018;-53
2021/08/31 06:55:22;;;;;;;8.85;6.05;;;;;;;;;;143739;657;47011;-54
2021/08/31 06:57:49;;;;;;;8.35;5.62;;;;;;;;;;143740;662;46018;-53
2021/08/31 07:00:17;;;;;;;9.40;5.47;;;;;;;;;;143741;582;46012;-53
2021/08/31 07:02:44;;;;;;;13.70;7.80;;;;;;;;;;143741;579;46019;-53
2021/08/31 07:05:11;;;;;;;9.55;4.53;;;;;;;;;;143740;722;46023;-53
2021/08/31 07:07:38;;;;;;;10.38;7.18;;;;;;;;;;143741;657;46016;-53
2021/08/31 07:10:06;;;;;;;10.45;6.47;;;;;;;;;;143740;564;46013;-54
2021/08/31 07:12:33;;;;;;;11.32;5.90;;;;;;;;;;143735;590;46019;-53
2021/08/31 07:14:59;;;;;;;11.60;7.65;;;;;;;;;;143738;653;46022;-53
2021/08/31 07:17:26;;;;;;;15.88;7.97;;;;;;;;;;143739;691;46018;-53
2021/08/31 07:19:53;;;;;;;12.37;6.78;;;;;;;;;;143742;611;46012;-53
2021/08/31 07:22:21;;;;;;;11.68;6.60;;;;;;;;;;143743;601;46018;-53
2021/08/31 07:24:48;;;;;;;9.45;6.03;;;;;;;;;;143739;586;46022;-53
2021/08/31 07:27:15;;;;;;;9.55;6.57;;;;;;;;;;143741;578;46016;-53
2021/08/31 07:29:43;;;;;;;11.77;6.70;;;;;;;;;;143742;597;46012;-53
2021/08/31 07:32:10;;;;;;;10.20;5.68;;;;;;;;;;143740;620;47020;-51
2021/08/31 07:34:38;;;;;;;12.37;5.80;;;;;;;;;;143742;650;46010;-52
2021/08/31 07:37:07;;;;;;;7.82;5.12;;;;;;;;;;143733;661;46018;-52
2021/08/31 07:39:35;;;;;;;13.68;6.43;;;;;;;;;;143741;712;46013;-51
2021/08/31 07:42:02;;;;;;;11.00;5.35;;;;;;;;;;143740;649;46021;-52
2021/08/31 07:44:29;;;;;;;16.65;5.57;;;;;;;;;;143739;592;46022;-52
2021/08/31 07:46:57;;;;;;;7.55;4.85;;;;;;;;;;143741;606;46021;-51
2021/08/31 07:49:24;;;;;;;8.93;5.55;;;;;;;;;;143742;608;46012;-51
2021/08/31 07:51:52;;;;;;;10.85;5.20;;;;;;;;;;143739;674;47018;-51
2021/08/31 07:54:19;;;;;;;6.93;5.28;;;;;;;;;;143740;597;46010;-52
2021/08/31 07:56:47;;;;;;;7.40;4.62;;;;;;;;;;143737;566;46019;-51
2021/08/31 07:59:14;;;;;;;9.80;5.30;;;;;;;;;;143738;620;46022;-51
2021/08/31 08:01:41;;;;;;;9.00;5.25;;;;;;;;;;143734;824;46020;-51
2021/08/31 08:04:09;;;;;;;8.70;4.93;;;;;;;;;;143741;656;46023;-51
2021/08/31 08:06:36;;;;;;;11.85;5.60;;;;;;;;;;143741;620;46018;-52
2021/08/31 08:09:03;;;;;;;8.13;5.12;;;;;;;;;;143741;630;46022;-52
2021/08/31 08:11:30;;;;;;;11.20;4.57;;;;;;;;;;143743;602;46019;-52
2021/08/31 08:13:58;;;;;;;9.95;4.80;;;;;;;;;;143739;614;46022;-51
2021/08/31 08:16:25;;;;;;;8.48;4.80;;;;;;;;;;143740;580;46018;-52
2021/08/31 08:18:52;;;;;;;8.85;4.78;;;;;;;;;;143743;571;46012;-52
2021/08/31 08:21:19;;;;;;;6.90;4.60;;;;;;;;;;143740;692;46020;-51
2021/08/31 08:23:46;;;;;;;7.40;4.40;;;;;;;;;;143740;582;46022;-51
2021/08/31 08:26:14;;;;;;;7.20;4.50;;;;;;;;;;143736;566;46019;-52
2021/08/31 08:28:41;;;;;;;9.95;4.82;;;;;;;;;;143744;633;46022;-52
2021/08/31 08:31:08;;;;;;;11.40;5.28;;;;;;;;;;143744;590;46018;-50
2021/08/31 08:33:35;;;;;;;12.88;5.40;;;;;;;;;;143741;565;46010;-50
2021/08/31 08:36:05;;;;;;;9.13;4.72;;;;;;;;;;143740;600;46018;-51
2021/08/31 08:38:32;;;;;;;8.95;4.45;;;;;;;;;;143745;587;46010;-51
2021/08/31 08:41:04;;;;;;;7.65;4.50;;;;;;;;;;143739;593;46020;-51
2021/08/31 08:43:32;;;;;;;7.87;4.03;;;;;;;;;;143740;573;46010;-52
2021/08/31 08:46:02;;;;;;;11.40;4.65;;;;;;;;;;143739;633;46018;-51
2021/08/31 08:48:29;;;;;;;7.12;4.40;;;;;;;;;;143744;579;46010;-51
2021/08/31 08:50:58;;;;;;;6.60;4.50;;;;;;;;;;143733;587;47018;-50
2021/08/31 08:53:28;;;;;;;11.35;4.28;;;;;;;;;;143740;635;46010;-50
2021/08/31 08:55:56;;;;;;;11.70;4.87;;;;;;;;;;143739;576;46018;-50
2021/08/31 08:58:24;;;;;;;6.68;4.43;;;;;;;;;;143742;605;46010;-50
2021/08/31 09:01:04;;;;;;;9.55;4.50;;;;;;;;;;143735;648;49034;-50
2021/08/31 09:03:33;;;;;;;8.75;4.50;;;;;;;;;;143737;575;47010;-51
2021/08/31 09:06:20;;;;;;;8.38;4.37;;;;;;;;;;143739;570;45910;-51
2021/08/31 09:09:01;;;;;;;8.07;4.45;;;;;;;;;;143743;569;46022;-51
2021/08/31 09:11:36;;;;;;;5.47;4.30;;;;;;;;;;143734;586;50019;-52
2021/08/31 09:14:40;;;;;;;7.82;4.70;;;;;;;;;;143740;630;47010;-51
2021/08/31 09:17:09;;;;;;;;;;;;;;;;;;143739;981;46018;-51
2021/08/31 09:19:39;;;;;;;9.20;4.60;;;;;;;;;;143751;594;46022;-51
2021/08/31 09:22:22;;;;;;;5.50;4.00;;;;;;;;;;143740;597;46020;-51
2021/08/31 09:25:11;;;;;;;7.05;4.45;;;;;;;;;;143741;567;46022;-51
2021/08/31 09:27:40;;;;;;;9.60;4.40;;;;;;;;;;143735;603;47012;-51
2021/08/31 09:30:29;;;;;;;10.50;5.18;;;;;;;;;;143742;647;46022;-52
2021/08/31 09:33:10;;;;;;;7.55;4.55;;;;;;;;;;143739;570;46020;-51
2021/08/31 09:35:42;;;;;;;5.60;4.05;;;;;;;;;;143737;582;47010;-54
2021/08/31 09:38:14;;;;;;;4.50;3.83;;;;;;;;;;143740;593;46010;-52
2021/08/31 09:40:43;;;;;;;6.17;4.07;;;;;;;;;;143745;640;46011;-52
2021/08/31 09:43:16;;;;;;;7.65;4.37;;;;;;;;;;143732;576;50018;-52
2021/08/31 09:45:43;;;;;;;;;;;;;;;;;;143744;978;46010;-52
2021/08/31 09:48:12;;;;;;;9.48;4.50;;;;;;;;;;143746;692;46019;-53
2021/08/31 09:50:50;;;;;;;7.93;4.28;;;;;;;;;;143742;588;46022;-53
2021/08/31 09:53:39;;;;;;;5.57;3.90;;;;;;;;;;143740;578;47010;-53
2021/08/31 09:56:14;;;;;;;5.87;4.45;;;;;;;;;;143737;597;47010;-53
2021/08/31 09:58:45;;;;;;;5.12;4.28;;;;;;;;;;143741;589;46018;-53
2021/08/31 10:01:12;;;;;;;6.87;4.45;;;;;;;;;;143743;574;46022;-53
2021/08/31 10:03:40;;;;;;;7.60;4.20;;;;;;;;;;143740;565;46019;-53
2021/08/31 10:06:07;;;;;;;8.18;4.32;;;;;;;;;;143743;580;46010;-54
2021/08/31 10:08:38;;;;;;;12.13;4.57;;;;;;;;;;143736;597;46018;-53
2021/08/31 10:11:06;;;;;;;8.63;4.95;;;;;;;;;;143744;632;46022;-53
2021/08/31 10:13:38;;;;;;;7.35;4.50;;;;;;;;;;143741;585;46020;-54
2021/08/31 10:16:06;;;;;;;6.53;4.50;;;;;;;;;;143743;600;46010;-53
2021/08/31 10:18:33;;;;;;;7.85;4.00;;;;;;;;;;143739;628;46019;-53
2021/08/31 10:21:13;;;;;;;8.00;4.53;;;;;;;;;;143742;587;46022;-54
2021/08/31 10:23:49;;;;;;;6.68;4.35;;;;;;;;;;143739;593;46019;-54
2021/08/31 10:26:27;;;;;;;4.53;3.85;;;;;;;;;;143739;566;47010;-54
2021/08/31 10:29:29;;;;;;;11.23;4.43;;;;;;;;;;143743;590;46018;-54
2021/08/31 10:31:58;;;;;;;6.22;4.28;;;;;;;;;;143745;587;46010;-54
2021/08/31 10:34:50;;;;;;;6.82;4.18;;;;;;;;;;143733;575;48018;-55
2021/08/31 10:37:18;;;;;;;6.10;4.27;;;;;;;;;;143741;580;46010;-54
2021/08/31 10:39:56;;;;;;;5.45;3.85;;;;;;;;;;143741;600;46019;-53
2021/08/31 10:42:41;;;;;;;7.93;4.57;;;;;;;;;;143744;572;46022;-54
2021/08/31 10:45:34;;;;;;;6.10;4.50;;;;;;;;;;143742;599;46018;-54
2021/08/31 10:48:22;;;;;;;16.27;4.30;;;;;;;;;;143742;564;46010;-54
2021/08/31 10:51:00;;;;;;;6.05;3.83;;;;;;;;;;143742;630;46020;-54
2021/08/31 10:53:47;;;;;;;7.35;3.80;;;;;;;;;;143742;586;46022;-54
2021/08/31 10:56:43;;;;;;;8.63;4.28;;;;;;;;;;143738;602;47018;-54
2021/08/31 10:59:32;;;;;;;9.55;4.90;;;;;;;;;;143742;629;46010;-53
2021/08/31 11:02:00;;;;;;;11.45;4.50;;;;;;;;;;143733;572;47015;-54
2021/08/31 11:04:31;;;;;;;13.55;4.72;;;;;;;;;;143746;608;46010;-53
2021/08/31 11:07:04;;;;;;;7.70;4.30;;;;;;;;;;143741;579;46020;-54
2021/08/31 11:09:33;;;;;;;8.32;4.22;;;;;;;;;;143742;566;46010;-53
2021/08/31 11:12:05;;;;;;;7.03;4.45;;;;;;;;;;143742;580;46018;-53
2021/08/31 11:14:53;;;;;;;7.80;4.28;;;;;;;;;;143744;578;46010;-51
2021/08/31 11:17:40;;;;;;;5.97;4.35;;;;;;;;;;143739;617;47020;-52
2021/08/31 11:20:30;;;;;;;12.90;4.40;;;;;;;;;;143742;622;46010;-52
2021/08/31 11:23:31;;;;;;;6.18;4.50;;;;;;;;;;143742;580;46020;-52
2021/08/31 11:26:02;;;;;;;7.70;4.78;;;;;;;;;;143744;572;46023;-51
2021/08/31 11:28:30;;;;;;;9.05;4.60;;;;;;;;;;143735;638;46020;-51
2021/08/31 11:31:06;;;;;;;6.60;4.60;;;;;;;;;;143742;586;46011;-51
2021/08/31 11:33:36;;;;;;;6.75;4.05;;;;;;;;;;143740;613;46019;-52
2021/08/31 11:36:05;;;;;;;7.55;4.40;;;;;;;;;;143744;576;46022;-52
2021/08/31 11:38:38;;;;;;;9.88;4.28;;;;;;;;;;143741;619;46019;-51
2021/08/31 11:41:22;;;;;;;8.95;4.25;;;;;;;;;;143743;564;46010;-51
2021/08/31 11:43:57;;;;;;;7.78;4.60;;;;;;;;;;143742;589;46018;-51
2021/08/31 11:46:38;;;;;;;6.70;4.22;;;;;;;;;;143745;632;46010;-52
2021/08/31 11:49:22;;;;;;;8.38;4.18;;;;;;;;;;143740;652;46018;-52
2021/08/31 11:52:08;;;;;;;8.02;4.40;;;;;;;;;;143742;585;46010;-51
2021/08/31 11:54:42;;;;;;;7.20;4.40;;;;;;;;;;143735;621;46019;-52
2021/08/31 11:57:10;;;;;;;14.27;5.15;;;;;;;;;;143746;614;46010;-51
2021/08/31 11:59:50;;;;;;;8.30;4.20;;;;;;;;;;143743;569;46018;-52
2021/08/31 12:02:22;;;;;;;7.43;4.47;;;;;;;;;;143740;573;46011;-52
2021/08/31 12:05:14;;;;;;;17.60;4.75;;;;;;;;;;143743;593;46018;-52
2021/08/31 12:07:44;;;;;;;8.20;4.20;;;;;;;;;;143742;607;46022;-52
2021/08/31 12:10:13;;;;;;;6.60;4.85;;;;;;;;;;143737;585;46021;-52
2021/08/31 12:12:44;;;;;;;7.53;5.82;;;;;;;;;;143742;577;46010;-52
2021/08/31 12:15:12;;;;;;;5.80;4.30;;;;;;;;;;143742;570;46018;-52
2021/08/31 12:17:45;;;;;;;9.27;4.72;;;;;;;;;;143746;579;46022;-52
2021/08/31 12:20:19;;;;;;;6.35;4.10;;;;;;;;;;143737;575;46018;-52
2021/08/31 12:22:48;;;;;;;7.03;4.20;;;;;;;;;;143743;589;46010;-52
2021/08/31 12:25:18;;;;;;;12.45;4.35;;;;;;;;;;143741;578;46019;-51
2021/08/31 12:27:53;;;;;;;8.15;4.68;;;;;;;;;;143746;669;46010;-52
2021/08/31 12:30:43;;;;;;;6.10;4.43;;;;;;;;;;143740;578;46020;-51
2021/08/31 12:33:12;;;;;;;7.25;4.60;;;;;;;;;;143743;602;46010;-52
2021/08/31 12:35:43;;;;;;;11.70;4.80;;;;;;;;;;143742;646;46018;-52
2021/08/31 12:38:25;;;;;;;9.80;4.90;;;;;;;;;;143744;572;46010;-52
2021/08/31 12:41:23;;;;;;;10.30;4.68;;;;;;;;;;143741;590;46021;-52
2021/08/31 12:43:59;;;;;;;8.00;4.60;;;;;;;;;;143741;572;46010;-52
2021/08/31 12:46:28;;;;;;;9.63;4.80;;;;;;;;;;143736;649;46019;-52
2021/08/31 12:49:11;;;;;;;7.10;4.57;;;;;;;;;;143744;664;46010;-52
2021/08/31 12:51:40;;;;;;;7.20;4.15;;;;;;;;;;143743;592;46018;-52
2021/08/31 12:54:20;;;;;;;6.37;4.32;;;;;;;;;;143742;660;46011;-52
2021/08/31 12:56:55;;;;;;;6.12;4.25;;;;;;;;;;143729;663;46018;-52
2021/08/31 12:59:50;;;;;;;5.93;4.68;;;;;;;;;;143745;648;46010;-52
2021/08/31 13:02:17;;;;;;;6.90;4.35;;;;;;;;;;143741;615;46023;-52
2021/08/31 13:04:45;;;;;;;5.50;4.28;;;;;;;;;;143742;711;45918;-51
2021/08/31 13:07:17;;;;;;;7.87;4.57;;;;;;;;;;143743;717;46018;-51
2021/08/31 13:09:46;;;;;;;7.60;4.55;;;;;;;;;;143744;647;46023;-51
2021/08/31 13:12:16;;;;;;;12.48;4.95;;;;;;;;;;143737;666;46018;-51
2021/08/31 13:14:43;;;;;;;7.05;4.87;;;;;;;;;;143737;589;47028;-51
2021/08/31 13:17:10;;;;;;;6.50;4.57;;;;;;;;;;143742;659;46019;-51
2021/08/31 13:19:37;;;;;;;8.38;4.95;;;;;;;;;;143746;570;46022;-52
2021/08/31 13:22:04;;;;;;;9.63;4.62;;;;;;;;;;143740;618;46018;-53
2021/08/31 13:24:31;;;;;;;8.30;5.22;;;;;;;;;;143743;598;46010;-53
2021/08/31 13:26:59;;;;;;;5.95;4.70;;;;;;;;;;143741;575;46018;-53
2021/08/31 13:29:26;;;;;;;11.02;5.65;;;;;;;;;;143742;601;46022;-53
2021/08/31 13:31:53;;;;;;;9.88;5.45;;;;;;;;;;143742;580;46019;-53
2021/08/31 13:34:21;;;;;;;11.02;5.62;;;;;;;;;;143743;662;46010;-53
2021/08/31 13:36:48;;;;;;;6.68;5.25;;;;;;;;;;143737;563;46018;-52
2021/08/31 13:39:15;;;;;;;10.57;5.65;;;;;;;;;;143743;660;46023;-52
2021/08/31 13:41:43;;;;;;;7.78;5.40;;;;;;;;;;143734;576;46018;-52
2021/08/31 13:44:11;;;;;;;8.98;5.28;;;;;;;;;;143742;579;47010;-52
2021/08/31 13:46:40;;;;;;;13.85;5.90;;;;;;;;;;143742;744;46019;-52
2021/08/31 13:49:08;;;;;;;13.52;5.20;;;;;;;;;;143743;575;46022;-52
2021/08/31 13:51:35;;;;;;;10.57;5.47;;;;;;;;;;143740;563;46018;-51
2021/08/31 13:54:02;;;;;;;13.52;5.65;;;;;;;;;;143743;657;46010;-52
2021/08/31 13:56:29;;;;;;;8.27;5.82;;;;;;;;;;143743;564;46018;-51
2021/08/31 13:58:56;;;;;;;8.13;5.32;;;;;;;;;;143744;620;46022;-52
2021/08/31 14:01:24;;;;;;;10.50;6.35;;;;;;;;;;143738;629;46019;-51
2021/08/31 14:03:51;;;;;;;9.98;5.87;;;;;;;;;;143741;589;46010;-52
2021/08/31 14:06:18;;;;;;;14.57;6.00;;;;;;;;;;143741;618;46018;-52
2021/08/31 14:08:45;;;;;;;7.28;5.80;;;;;;;;;;143746;616;46023;-51
2021/08/31 14:11:13;;;;;;;10.45;6.00;;;;;;;;;;143740;599;47018;-52
2021/08/31 14:13:41;;;;;;;8.75;5.93;;;;;;;;;;143742;605;46010;-52
2021/08/31 14:16:08;;;;;;;10.15;5.78;;;;;;;;;;143743;574;46019;-52
2021/08/31 14:18:35;;;;;;;7.82;6.35;;;;;;;;;;143745;655;46022;-52
2021/08/31 14:21:02;;;;;;;9.82;6.37;;;;;;;;;;143742;582;46018;-52
2021/08/31 14:23:29;;;;;;;9.25;5.85;;;;;;;;;;143741;671;46011;-52
2021/08/31 14:25:56;;;;;;;9.32;6.32;;;;;;;;;;143735;627;46018;-52
2021/08/31 14:28:23;;;;;;;7.70;6.20;;;;;;;;;;143743;566;46010;-52
2021/08/31 14:30:50;;;;;;;10.43;6.00;;;;;;;;;;143738;635;47019;-52
2021/08/31 14:33:18;;;;;;;10.52;5.90;;;;;;;;;;143739;587;46010;-51
2021/08/31 14:35:45;;;;;;;11.02;6.10;;;;;;;;;;143735;624;46018;-52
2021/08/31 14:38:12;;;;;;;12.88;6.07;;;;;;;;;;143741;582;46022;-52
2021/08/31 14:40:39;;;;;;;9.80;6.05;;;;;;;;;;143737;604;46018;-52
2021/08/31 14:43:06;;;;;;;8.75;6.43;;;;;;;;;;143741;596;46010;-52
2021/08/31 14:45:33;;;;;;;9.32;6.25;;;;;;;;;;143740;589;46018;-52
2021/08/31 14:48:00;;;;;;;8.07;5.95;;;;;;;;;;143742;592;46023;-51
2021/08/31 14:50:27;;;;;;;9.45;6.97;;;;;;;;;;143735;597;46018;-52